createdAt,value
2022-09-10T00:01:40.441Z,-83
2022-09-10T00:04:12.914Z,-82
2022-09-10T00:06:43.981Z,-82
2022-09-10T00:09:14.023Z,-82
2022-09-10T00:11:43.223Z,-82
2022-09-10T00:14:17.560Z,-82
2022-09-10T00:16:46.486Z,-83
2022-09-10T00:19:15.990Z,-82
2022-09-10T00:21:46.463Z,-82
2022-09-10T00:24:15.530Z,-82
2022-09-10T00:26:43.996Z,-82
2022-09-10T00:29:17.578Z,-82
2022-09-10T00:31:46.104Z,-82
2022-09-10T00:34:15.534Z,-83
2022-09-10T00:36:46.850Z,-84
2022-09-10T00:39:18.470Z,-84
2022-09-10T00:41:49.584Z,-85
2022-09-10T00:45:07.496Z,-87
2022-09-10T00:47:40.167Z,-87
2022-09-10T00:50:21.731Z,-87
2022-09-10T00:52:56.284Z,-87
2022-09-10T00:55:25.385Z,-86
2022-09-10T00:58:00.334Z,-86
2022-09-10T01:00:28.940Z,-87
2022-09-10T01:02:57.370Z,-86
2022-09-10T01:05:27.082Z,-87
2022-09-10T01:07:58.146Z,-86
2022-09-10T01:10:31.636Z,-86
2022-09-10T01:13:21.748Z,-86
2022-09-10T01:16:01.055Z,-86
2022-09-10T01:18:42.706Z,-86
2022-09-10T01:21:25.026Z,-85
2022-09-10T01:24:39.357Z,-87
2022-09-10T01:27:45.578Z,-87
2022-09-10T01:30:19.349Z,-86
2022-09-10T01:33:01.778Z,-86
2022-09-10T01:35:40.973Z,-85
2022-09-10T01:38:18.265Z,-85
2022-09-10T01:40:47.864Z,-85
2022-09-10T01:43:18.328Z,-84
2022-09-10T01:45:59.416Z,-84
2022-09-10T01:48:54.213Z,-84
2022-09-10T01:51:34.952Z,-84
2022-09-10T01:54:33.658Z,-85
2022-09-10T01:57:15.773Z,-84
2022-09-10T01:59:56.394Z,-84
2022-09-10T02:02:30.710Z,-83
2022-09-10T02:05:01.840Z,-85
2022-09-10T02:07:33.327Z,-84
2022-09-10T02:10:03.907Z,-84
2022-09-10T02:12:33.340Z,-84
2022-09-10T02:15:03.395Z,-84
2022-09-10T02:17:37.433Z,-83
2022-09-10T02:20:13.776Z,-84
2022-09-10T02:22:49.833Z,-84
2022-09-10T02:25:18.886Z,-84
2022-09-10T02:27:49.060Z,-84
2022-09-10T02:30:20.304Z,-84
2022-09-10T02:32:48.990Z,-84
2022-09-10T02:35:19.487Z,-85
2022-09-10T02:37:48.532Z,-85
2022-09-10T02:40:19.529Z,-84
2022-09-10T02:42:48.216Z,-84
2022-09-10T02:45:18.398Z,-84
2022-09-10T02:47:46.922Z,-85
2022-09-10T02:50:15.896Z,-85
2022-09-10T02:52:46.321Z,-86
2022-09-10T02:55:15.434Z,-86
2022-09-10T02:57:44.090Z,-85
2022-09-10T03:00:13.729Z,-86
2022-09-10T03:02:43.531Z,-85
2022-09-10T03:05:12.047Z,-84
2022-09-10T03:07:40.552Z,-86
2022-09-10T03:10:10.176Z,-86
2022-09-10T03:12:39.249Z,-86
2022-09-10T03:15:09.630Z,-86
2022-09-10T03:17:38.076Z,-86
2022-09-10T03:20:09.430Z,-86
2022-09-10T03:22:38.351Z,-86
2022-09-10T03:25:08.734Z,-85
2022-09-10T03:27:37.510Z,-86
2022-09-10T03:30:07.326Z,-85
2022-09-10T03:32:35.820Z,-85
2022-09-10T03:35:04.524Z,-86
2022-09-10T03:37:34.378Z,-86
2022-09-10T03:40:03.209Z,-87
2022-09-10T03:42:31.736Z,-85
2022-09-10T03:45:00.251Z,-85
2022-09-10T03:47:28.651Z,-86
2022-09-10T03:49:57.098Z,-85
2022-09-10T03:52:26.638Z,-84
2022-09-10T03:54:56.543Z,-85
2022-09-10T03:57:25.991Z,-86
2022-09-10T03:59:54.537Z,-85
2022-09-10T04:02:23.054Z,-85
2022-09-10T04:04:51.498Z,-85
2022-09-10T04:07:20.661Z,-85
2022-09-10T04:09:49.072Z,-85
2022-09-10T04:12:18.937Z,-84
2022-09-10T04:14:47.573Z,-85
2022-09-10T04:17:15.983Z,-84
2022-09-10T04:19:44.504Z,-84
2022-09-10T04:22:13.028Z,-84
2022-09-10T04:24:42.307Z,-84
2022-09-10T04:27:10.781Z,-84
2022-09-10T04:29:41.077Z,-85
2022-09-10T04:32:09.804Z,-85
2022-09-10T04:34:38.265Z,-85
2022-09-10T04:37:06.766Z,-84
2022-09-10T04:39:36.041Z,-85
2022-09-10T04:42:04.852Z,-85
2022-09-10T04:44:33.924Z,-84
2022-09-10T04:47:03.737Z,-85
2022-09-10T04:49:32.169Z,-84
2022-09-10T04:52:00.612Z,-84
2022-09-10T04:54:29.102Z,-84
2022-09-10T04:56:57.734Z,-85
2022-09-10T04:59:26.259Z,-84
2022-09-10T05:01:54.891Z,-84
2022-09-10T05:04:24.904Z,-85
2022-09-10T05:06:53.450Z,-85
2022-09-10T05:09:22.490Z,-85
2022-09-10T05:11:50.989Z,-84
2022-09-10T05:14:19.454Z,-84
2022-09-10T05:16:48.373Z,-84
2022-09-10T05:19:18.753Z,-84
2022-09-10T05:21:49.661Z,-84
2022-09-10T05:24:18.253Z,-84
2022-09-10T05:26:46.856Z,-84
2022-09-10T05:29:15.322Z,-83
2022-09-10T05:31:44.475Z,-84
2022-09-10T05:34:13.232Z,-84
2022-09-10T05:36:41.934Z,-83
2022-09-10T05:39:11.792Z,-84
2022-09-10T05:41:40.208Z,-83
2022-09-10T05:44:09.040Z,-84
2022-09-10T05:46:37.988Z,-85
2022-09-10T05:49:06.431Z,-85
2022-09-10T05:51:34.948Z,-85
2022-09-10T05:54:03.783Z,-85
2022-09-10T05:56:34.795Z,-85
2022-09-10T05:59:04.485Z,-85
2022-09-10T06:01:33.243Z,-85
2022-09-10T06:04:02.436Z,-86
2022-09-10T06:06:31.035Z,-85
2022-09-10T06:08:59.603Z,-85
2022-09-10T06:11:28.187Z,-85
2022-09-10T06:13:58.036Z,-85
2022-09-10T06:16:26.638Z,-86
2022-09-10T06:18:55.347Z,-84
2022-09-10T06:21:28.112Z,-84
2022-09-10T06:23:57.143Z,-84
2022-09-10T06:26:25.718Z,-83
2022-09-10T06:28:56.772Z,-84
2022-09-10T06:31:27.179Z,-84
2022-09-10T06:33:55.674Z,-83
2022-09-10T06:36:24.155Z,-83
2022-09-10T06:38:58.228Z,-82
2022-09-10T06:41:27.310Z,-82
2022-09-10T06:43:56.222Z,-83
2022-09-10T06:47:02.874Z,-83
2022-09-10T06:49:14.977Z,-82
2022-09-10T06:51:43.388Z,-83
2022-09-10T06:54:12.838Z,-82
2022-09-10T06:56:42.936Z,-83
2022-09-10T06:59:13.733Z,-82
2022-09-10T07:01:43.624Z,-83
2022-09-10T07:04:12.532Z,-85
2022-09-10T07:06:40.999Z,-85
2022-09-10T07:09:09.429Z,-83
2022-09-10T07:11:41.350Z,-83
2022-09-10T07:14:14.045Z,-83
2022-09-10T07:16:46.375Z,-83
2022-09-10T07:19:17.435Z,-82
2022-09-10T07:21:45.979Z,-83
2022-09-10T07:24:15.668Z,-83
2022-09-10T07:26:44.084Z,-83
2022-09-10T07:29:12.978Z,-83
2022-09-10T07:31:41.670Z,-83
2022-09-10T07:34:11.709Z,-82
2022-09-10T07:36:40.087Z,-82
2022-09-10T07:39:08.515Z,-82
2022-09-10T07:41:37.018Z,-82
2022-09-10T07:44:05.666Z,-83
2022-09-10T07:46:34.082Z,-82
2022-09-10T07:49:02.641Z,-83
2022-09-10T07:51:33.167Z,-82
2022-09-10T07:54:01.837Z,-83
2022-09-10T07:56:31.949Z,-83
2022-09-10T07:59:02.813Z,-83
2022-09-10T08:01:31.854Z,-83
2022-09-10T08:04:00.471Z,-83
2022-09-10T08:06:28.882Z,-82
2022-09-10T08:09:00.088Z,-83
2022-09-10T08:11:28.608Z,-83
2022-09-10T08:13:57.305Z,-83
2022-09-10T08:16:26.922Z,-83
2022-09-10T08:18:57.888Z,-83
2022-09-10T08:21:26.902Z,-84
2022-09-10T08:23:56.412Z,-84
2022-09-10T08:26:28.000Z,-85
2022-09-10T08:28:58.638Z,-84
2022-09-10T08:31:27.616Z,-83
2022-09-10T08:33:58.078Z,-82
2022-09-10T08:36:27.156Z,-83
2022-09-10T08:39:00.718Z,-85
2022-09-10T08:41:48.135Z,-82
2022-09-10T08:44:31.335Z,-85
2022-09-10T08:47:14.199Z,-85
2022-09-10T08:49:49.625Z,-85
2022-09-10T08:52:31.196Z,-85
2022-09-10T08:55:12.954Z,-82
2022-09-10T08:57:48.073Z,-82
2022-09-10T09:00:23.107Z,-82
2022-09-10T09:03:00.036Z,-82
2022-09-10T09:05:35.600Z,-83
2022-09-10T09:08:06.262Z,-82
2022-09-10T09:10:48.716Z,-83
2022-09-10T09:13:55.428Z,-82
2022-09-10T09:16:53.230Z,-82
2022-09-10T09:19:33.825Z,-83
2022-09-10T09:22:13.142Z,-82
2022-09-10T09:24:57.984Z,-83
2022-09-10T09:27:35.209Z,-85
2022-09-10T09:30:09.120Z,-82
2022-09-10T09:32:43.464Z,-83
2022-09-10T09:35:28.818Z,-83
2022-09-10T09:38:17.722Z,-83
2022-09-10T09:40:56.458Z,-82
2022-09-10T09:43:51.725Z,-83
2022-09-10T09:46:24.404Z,-82
2022-09-10T09:48:59.314Z,-83
2022-09-10T09:51:35.468Z,-84
2022-09-10T09:54:46.636Z,-83
2022-09-10T09:57:01.646Z,-83
2022-09-10T09:59:34.873Z,-82
2022-09-10T10:02:14.909Z,-83
2022-09-10T10:04:56.420Z,-83
2022-09-10T10:07:31.565Z,-83
2022-09-10T10:10:02.235Z,-82
2022-09-10T10:12:33.058Z,-86
2022-09-10T10:15:02.881Z,-83
2022-09-10T10:17:43.555Z,-85
2022-09-10T10:20:14.850Z,-83
2022-09-10T10:22:45.130Z,-84
2022-09-10T10:25:40.469Z,-84
2022-09-10T10:28:22.283Z,-86
2022-09-10T10:30:54.796Z,-84
2022-09-10T10:33:29.988Z,-82
2022-09-10T10:36:11.705Z,-83
2022-09-10T10:38:43.084Z,-82
2022-09-10T10:41:43.434Z,-81
2022-09-10T10:44:44.371Z,-81
2022-09-10T10:47:36.009Z,-83
2022-09-10T10:50:21.923Z,-84
2022-09-10T10:53:12.587Z,-82
2022-09-10T10:55:45.385Z,-82
2022-09-10T10:58:53.988Z,-82
2022-09-10T11:01:26.454Z,-83
2022-09-10T11:04:10.921Z,-82
2022-09-10T11:06:47.408Z,-82
2022-09-10T11:09:24.474Z,-83
2022-09-10T11:12:01.229Z,-87
2022-09-10T11:14:40.312Z,-85
2022-09-10T11:17:18.903Z,-87
2022-09-10T11:20:27.252Z,-86
2022-09-10T11:23:01.028Z,-88
2022-09-10T11:25:36.248Z,-86
2022-09-10T11:28:14.797Z,-85
2022-09-10T11:30:50.886Z,-85
2022-09-10T11:33:28.532Z,-85
2022-09-10T11:36:06.465Z,-85
2022-09-10T11:38:48.337Z,-85
2022-09-10T11:41:22.974Z,-84
2022-09-10T11:44:02.983Z,-84
2022-09-10T11:46:41.998Z,-83
2022-09-10T11:49:18.083Z,-83
2022-09-10T11:51:47.773Z,-84
2022-09-10T11:54:31.716Z,-84
2022-09-10T11:57:09.855Z,-85
2022-09-10T12:00:09.239Z,-83
2022-09-10T12:03:41.030Z,-83
2022-09-10T12:06:22.388Z,-84
2022-09-10T12:09:09.424Z,-83
2022-09-10T12:11:52.525Z,-83
2022-09-10T12:14:22.080Z,-83
2022-09-10T12:16:55.967Z,-83
2022-09-10T12:19:32.925Z,-83
2022-09-10T12:22:05.998Z,-84
2022-09-10T12:24:37.588Z,-84
2022-09-10T12:27:10.138Z,-84
2022-09-10T12:29:40.870Z,-83
2022-09-10T12:32:39.756Z,-83
2022-09-10T12:35:49.002Z,-82
2022-09-10T12:38:57.035Z,-82
2022-09-10T12:42:03.775Z,-82
2022-09-10T12:44:47.483Z,-82
2022-09-10T12:47:53.047Z,-82
2022-09-10T12:50:46.432Z,-82
2022-09-10T12:53:57.098Z,-82
2022-09-10T12:57:05.344Z,-83
2022-09-10T13:00:27.272Z,-84
2022-09-10T13:02:59.331Z,-83
2022-09-10T13:05:40.402Z,-82
2022-09-10T13:08:18.599Z,-82
2022-09-10T13:10:51.044Z,-82
2022-09-10T13:13:37.517Z,-83
2022-09-10T13:16:15.105Z,-83
2022-09-10T13:18:43.550Z,-83
2022-09-10T13:21:52.185Z,-82
2022-09-10T13:24:59.382Z,-83
2022-09-10T13:27:40.402Z,-83
2022-09-10T13:30:18.414Z,-83
2022-09-10T13:32:55.517Z,-84
2022-09-10T13:36:03.248Z,-84
2022-09-10T13:39:03.148Z,-83
2022-09-10T13:42:12.166Z,-84
2022-09-10T13:45:20.278Z,-83
2022-09-10T13:48:01.105Z,-83
2022-09-10T13:50:37.618Z,-84
2022-09-10T13:53:10.825Z,-84
2022-09-10T13:55:41.254Z,-83
2022-09-10T13:58:16.965Z,-83
2022-09-10T14:00:54.618Z,-83
2022-09-10T14:03:30.264Z,-83
2022-09-10T14:06:01.634Z,-83
2022-09-10T14:08:35.709Z,-83
2022-09-10T14:11:16.567Z,-84
2022-09-10T14:13:51.925Z,-84
2022-09-10T14:16:30.265Z,-84
2022-09-10T14:19:04.787Z,-83
2022-09-10T14:21:33.886Z,-83
2022-09-10T14:24:02.452Z,-83
2022-09-10T14:26:33.777Z,-84
2022-09-10T14:29:04.950Z,-84
2022-09-10T14:31:37.736Z,-83
2022-09-10T14:34:33.096Z,-83
2022-09-10T14:37:02.531Z,-83
2022-09-10T14:39:31.136Z,-83
2022-09-10T14:42:27.405Z,-84
2022-09-10T14:44:56.247Z,-84
2022-09-10T14:47:32.506Z,-83
2022-09-10T14:50:32.571Z,-83
2022-09-10T14:53:01.207Z,-83
2022-09-10T14:55:33.255Z,-82
2022-09-10T14:58:01.793Z,-82
2022-09-10T15:00:31.323Z,-83
2022-09-10T15:03:01.168Z,-83
2022-09-10T15:05:30.956Z,-83
2022-09-10T15:07:59.409Z,-82
2022-09-10T15:10:27.916Z,-83
2022-09-10T15:12:56.672Z,-82
2022-09-10T15:15:26.944Z,-83
2022-09-10T15:17:55.398Z,-82
2022-09-10T15:20:27.780Z,-82
2022-09-10T15:22:57.931Z,-83
2022-09-10T15:25:38.738Z,-83
2022-09-10T15:28:08.044Z,-83
2022-09-10T15:30:37.047Z,-84
2022-09-10T15:33:06.476Z,-84
2022-09-10T15:35:35.408Z,-84
2022-09-10T15:38:05.158Z,-83
2022-09-10T15:40:33.542Z,-83
2022-09-10T15:43:02.003Z,-84
2022-09-10T15:45:31.019Z,-84
2022-09-10T15:47:59.498Z,-83
2022-09-10T15:50:27.924Z,-83
2022-09-10T15:52:56.370Z,-84
2022-09-10T15:55:27.608Z,-83
2022-09-10T15:57:56.030Z,-83
2022-09-10T16:00:24.544Z,-81
2022-09-10T16:02:54.430Z,-83
2022-09-10T16:05:23.060Z,-82
2022-09-10T16:07:51.546Z,-82
2022-09-10T16:10:19.960Z,-82
2022-09-10T16:12:49.696Z,-82
2022-09-10T16:15:18.457Z,-81
2022-09-10T16:17:46.918Z,-82
2022-09-10T16:20:15.565Z,-83
2022-09-10T16:22:43.962Z,-82
2022-09-10T16:25:12.348Z,-82
2022-09-10T16:27:43.335Z,-83
2022-09-10T16:30:14.526Z,-83
2022-09-10T16:32:42.952Z,-83
2022-09-10T16:35:12.010Z,-83
2022-09-10T16:37:41.001Z,-83
2022-09-10T16:40:11.237Z,-85
2022-09-10T16:42:39.607Z,-84
2022-09-10T16:45:12.168Z,-84
2022-09-10T16:47:40.614Z,-83
2022-09-10T16:50:10.352Z,-83
2022-09-10T16:52:39.288Z,-84
2022-09-10T16:55:08.497Z,-85
2022-09-10T16:57:36.913Z,-84
2022-09-10T17:00:07.827Z,-84
2022-09-10T17:02:37.836Z,-83
2022-09-10T17:05:06.775Z,-83
2022-09-10T17:07:35.208Z,-84
2022-09-10T17:10:03.613Z,-86
2022-09-10T17:12:32.041Z,-88
2022-09-10T17:15:00.495Z,-83
2022-09-10T17:17:29.033Z,-84
2022-09-10T17:19:59.461Z,-84
2022-09-10T17:22:28.122Z,-84
2022-09-10T17:24:56.600Z,-83
2022-09-10T17:27:25.695Z,-84
2022-09-10T17:29:54.211Z,-85
2022-09-10T17:32:22.694Z,-83
2022-09-10T17:34:51.635Z,-83
2022-09-10T17:37:21.380Z,-83
2022-09-10T17:39:51.731Z,-82
2022-09-10T17:42:20.233Z,-84
2022-09-10T17:44:49.466Z,-83
2022-09-10T17:47:17.847Z,-82
2022-09-10T17:49:46.692Z,-83
2022-09-10T17:52:15.772Z,-83
2022-09-10T17:54:45.811Z,-83
2022-09-10T17:57:17.622Z,-83
2022-09-10T17:59:46.084Z,-82
2022-09-10T18:02:17.279Z,-83
2022-09-10T18:04:50.329Z,-82
2022-09-10T18:07:19.331Z,-83
2022-09-10T18:09:49.093Z,-83
2022-09-10T18:12:17.458Z,-83
2022-09-10T18:14:45.865Z,-84
2022-09-10T18:17:14.237Z,-83
2022-09-10T18:19:43.372Z,-83
2022-09-10T18:22:12.562Z,-82
2022-09-10T18:24:40.965Z,-83
2022-09-10T18:27:10.778Z,-83
2022-09-10T18:29:41.557Z,-83
2022-09-10T18:32:09.970Z,-82
2022-09-10T18:34:40.608Z,-83
2022-09-10T18:37:09.038Z,-83
2022-09-10T18:39:37.531Z,-83
2022-09-10T18:42:06.505Z,-82
2022-09-10T18:44:37.648Z,-82
2022-09-10T18:47:17.683Z,-83
2022-09-10T18:49:56.287Z,-83
2022-09-10T18:52:24.833Z,-82
2022-09-10T18:54:53.211Z,-84
2022-09-10T18:57:21.863Z,-84
2022-09-10T18:59:54.136Z,-83
2022-09-10T19:02:22.707Z,-83
2022-09-10T19:05:10.265Z,-83
2022-09-10T19:07:39.917Z,-83
2022-09-10T19:10:09.461Z,-83
2022-09-10T19:12:37.896Z,-83
2022-09-10T19:15:09.604Z,-84
2022-09-10T19:17:38.004Z,-83
2022-09-10T19:20:09.046Z,-84
2022-09-10T19:22:37.902Z,-84
2022-09-10T19:25:07.877Z,-83
2022-09-10T19:27:36.298Z,-82
2022-09-10T19:30:05.463Z,-83
2022-09-10T19:32:35.286Z,-83
2022-09-10T19:35:03.662Z,-83
2022-09-10T19:37:32.080Z,-84
2022-09-10T19:40:00.524Z,-85
2022-09-10T19:42:29.131Z,-85
2022-09-10T19:44:57.499Z,-84
2022-09-10T19:47:25.932Z,-84
2022-09-10T19:49:55.982Z,-85
2022-09-10T19:52:25.668Z,-85
2022-09-10T19:54:54.193Z,-85
2022-09-10T19:57:22.832Z,-85
2022-09-10T19:59:51.338Z,-84
2022-09-10T20:02:19.787Z,-85
2022-09-10T20:04:48.273Z,-85
2022-09-10T20:07:18.079Z,-85
2022-09-10T20:09:47.087Z,-85
2022-09-10T20:12:16.403Z,-85
2022-09-10T20:14:44.820Z,-85
2022-09-10T20:17:13.599Z,-85
2022-09-10T20:19:42.037Z,-86
2022-09-10T20:22:10.443Z,-84
2022-09-10T20:24:40.301Z,-85
2022-09-10T20:27:08.747Z,-85
2022-09-10T20:29:37.223Z,-85
2022-09-10T20:32:07.106Z,-85
2022-09-10T20:34:36.783Z,-84
2022-09-10T20:37:05.350Z,-84
2022-09-10T20:39:34.689Z,-85
2022-09-10T20:42:05.308Z,-84
2022-09-10T20:44:33.796Z,-85
2022-09-10T20:47:03.546Z,-84
2022-09-10T20:49:32.037Z,-85
2022-09-10T20:52:00.537Z,-85
2022-09-10T20:54:29.158Z,-85
2022-09-10T20:56:57.894Z,-85
2022-09-10T20:59:29.205Z,-84
2022-09-10T21:01:57.939Z,-85
2022-09-10T21:04:26.619Z,-85
2022-09-10T21:06:55.273Z,-85
2022-09-10T21:09:23.693Z,-85
2022-09-10T21:11:52.187Z,-85
2022-09-10T21:14:21.143Z,-84
2022-09-10T21:16:51.037Z,-85
2022-09-10T21:19:19.616Z,-84
2022-09-10T21:21:48.911Z,-85
2022-09-10T21:24:20.213Z,-85
2022-09-10T21:26:49.209Z,-84
2022-09-10T21:29:20.971Z,-85
2022-09-10T21:31:53.343Z,-84
2022-09-10T21:34:21.925Z,-85
2022-09-10T21:36:51.098Z,-84
2022-09-10T21:39:19.846Z,-85
2022-09-10T21:41:50.716Z,-85
2022-09-10T21:44:22.151Z,-84
2022-09-10T21:46:53.141Z,-84
2022-09-10T21:49:21.788Z,-85
2022-09-10T21:51:50.364Z,-85
2022-09-10T21:54:22.054Z,-85
2022-09-10T21:56:51.737Z,-85
2022-09-10T21:59:21.698Z,-84
2022-09-10T22:01:52.337Z,-84
2022-09-10T22:04:23.004Z,-84
2022-09-10T22:06:53.986Z,-83
2022-09-10T22:09:24.699Z,-85
2022-09-10T22:11:56.457Z,-85
2022-09-10T22:14:26.642Z,-85
2022-09-10T22:16:56.451Z,-85
2022-09-10T22:19:27.365Z,-85
2022-09-10T22:21:56.946Z,-86
2022-09-10T22:24:26.231Z,-85
2022-09-10T22:26:55.338Z,-85
2022-09-10T22:29:24.926Z,-86
2022-09-10T22:31:53.385Z,-85
2022-09-10T22:34:23.366Z,-85
2022-09-10T22:36:52.056Z,-86
2022-09-10T22:39:22.671Z,-85
2022-09-10T22:41:52.560Z,-86
2022-09-10T22:44:21.031Z,-85
2022-09-10T22:46:49.782Z,-85
2022-09-10T22:49:18.661Z,-85
2022-09-10T22:51:49.045Z,-86
2022-09-10T22:54:17.697Z,-86
2022-09-10T22:56:46.134Z,-85
2022-09-10T22:59:16.133Z,-84
2022-09-10T23:01:47.506Z,-85
2022-09-10T23:04:17.283Z,-85
2022-09-10T23:06:48.338Z,-85
2022-09-10T23:09:18.593Z,-85
2022-09-10T23:11:47.546Z,-86
2022-09-10T23:14:19.295Z,-86
2022-09-10T23:16:50.139Z,-84
2022-09-10T23:19:21.680Z,-85
2022-09-10T23:21:53.956Z,-85
2022-09-10T23:24:26.415Z,-85
2022-09-10T23:26:56.062Z,-84
2022-09-10T23:29:24.574Z,-86
2022-09-10T23:31:54.391Z,-85
2022-09-10T23:34:23.671Z,-85
2022-09-10T23:36:54.225Z,-87
2022-09-10T23:39:25.158Z,-84
2022-09-10T23:41:56.772Z,-84
2022-09-10T23:44:25.678Z,-84
2022-09-10T23:46:55.573Z,-85
2022-09-10T23:49:24.891Z,-85
2022-09-10T23:51:54.756Z,-85
2022-09-10T23:54:23.277Z,-85
2022-09-10T23:56:51.896Z,-84
2022-09-10T23:59:21.442Z,-84
